createdAt,value
2023-01-23T00:00:14.224Z,8.10
2023-01-23T00:02:42.843Z,8.10
2023-01-23T00:05:12.291Z,8.00
2023-01-23T00:07:40.802Z,8.10
2023-01-23T00:10:12.893Z,8.10
2023-01-23T00:12:43.911Z,8.10
2023-01-23T00:15:14.259Z,8.20
2023-01-23T00:17:43.279Z,8.20
2023-01-23T00:20:13.574Z,8.20
2023-01-23T00:23:00.256Z,8.20
2023-01-23T00:25:30.072Z,8.20
2023-01-23T00:27:58.515Z,8.20
2023-01-23T00:30:27.005Z,8.30
2023-01-23T00:32:55.730Z,8.30
2023-01-23T00:35:24.355Z,8.30
2023-01-23T00:37:52.900Z,8.30
2023-01-23T00:40:48.290Z,8.30
2023-01-23T00:43:16.768Z,8.40
2023-01-23T00:45:45.226Z,8.40
2023-01-23T00:48:13.903Z,8.40
2023-01-23T00:50:42.618Z,8.30
2023-01-23T00:53:12.922Z,8.40
2023-01-23T00:55:42.039Z,8.30
2023-01-23T00:58:12.153Z,8.30
2023-01-23T01:00:40.908Z,8.30
2023-01-23T01:03:10.014Z,8.20
2023-01-23T01:05:38.716Z,8.20
2023-01-23T01:08:07.919Z,8.10
2023-01-23T01:10:36.381Z,8.10
2023-01-23T01:13:05.578Z,8.00
2023-01-23T01:15:35.536Z,8.00
2023-01-23T01:18:04.416Z,8.00
2023-01-23T01:20:36.846Z,7.90
2023-01-23T01:23:06.769Z,7.90
2023-01-23T01:25:35.386Z,7.90
2023-01-23T01:28:04.443Z,7.90
2023-01-23T01:30:34.592Z,7.80
2023-01-23T01:33:03.222Z,7.80
2023-01-23T01:35:31.924Z,7.80
2023-01-23T01:38:00.772Z,7.80
2023-01-23T01:40:34.135Z,7.80
2023-01-23T01:43:07.284Z,7.80
2023-01-23T01:46:13.059Z,7.80
2023-01-23T01:49:00.254Z,7.90
2023-01-23T01:51:34.254Z,7.90
2023-01-23T01:54:15.525Z,7.90
2023-01-23T01:56:49.768Z,7.90
2023-01-23T01:59:21.060Z,7.90
2023-01-23T02:02:04.978Z,8.00
2023-01-23T02:04:37.433Z,8.00
2023-01-23T02:07:28.985Z,8.00
2023-01-23T02:09:58.736Z,8.10
2023-01-23T02:12:28.216Z,8.20
2023-01-23T02:14:57.179Z,8.20
2023-01-23T02:17:27.317Z,8.20
2023-01-23T02:20:47.494Z,8.20
2023-01-23T02:23:28.515Z,8.30
2023-01-23T02:26:02.690Z,8.30
2023-01-23T02:28:43.871Z,8.40
2023-01-23T02:31:13.949Z,8.40
2023-01-23T02:33:52.324Z,8.40
2023-01-23T02:36:25.913Z,8.40
2023-01-23T02:39:08.783Z,8.40
2023-01-23T02:41:42.335Z,8.40
2023-01-23T02:44:16.849Z,8.40
2023-01-23T02:46:46.147Z,8.40
2023-01-23T02:49:15.592Z,8.50
2023-01-23T02:51:44.199Z,8.50
2023-01-23T02:54:12.757Z,8.50
2023-01-23T02:56:42.937Z,8.40
2023-01-23T02:59:29.705Z,8.40
2023-01-23T03:01:59.024Z,8.40
2023-01-23T03:04:27.616Z,8.40
2023-01-23T03:06:56.120Z,8.40
2023-01-23T03:09:24.553Z,8.30
2023-01-23T03:11:54.449Z,8.30
2023-01-23T03:14:25.689Z,8.30
2023-01-23T03:16:55.299Z,8.20
2023-01-23T03:19:27.118Z,8.20
2023-01-23T03:21:55.996Z,8.20
2023-01-23T03:24:24.569Z,8.20
2023-01-23T03:26:54.463Z,8.10
2023-01-23T03:29:43.211Z,8.10
2023-01-23T03:32:15.123Z,8.20
2023-01-23T03:34:44.399Z,8.20
2023-01-23T03:37:15.115Z,8.20
2023-01-23T03:40:00.982Z,8.20
2023-01-23T03:42:31.041Z,8.20
2023-01-23T03:44:59.461Z,8.20
2023-01-23T03:47:28.035Z,8.20
2023-01-23T03:49:57.321Z,8.20
2023-01-23T03:52:26.064Z,8.20
2023-01-23T03:54:56.397Z,8.20
2023-01-23T03:57:24.855Z,8.20
2023-01-23T03:59:55.315Z,8.20
2023-01-23T04:02:24.719Z,8.20
2023-01-23T04:04:53.295Z,8.20
2023-01-23T04:07:21.808Z,8.20
2023-01-23T04:09:50.316Z,8.20
2023-01-23T04:12:19.073Z,8.20
2023-01-23T04:14:47.501Z,8.10
2023-01-23T04:17:17.486Z,8.10
2023-01-23T04:19:45.966Z,8.10
2023-01-23T04:22:14.452Z,8.10
2023-01-23T04:24:42.876Z,8.10
2023-01-23T04:27:11.981Z,8.10
2023-01-23T04:29:40.440Z,8.00
2023-01-23T04:32:09.950Z,8.00
2023-01-23T04:34:39.765Z,8.00
2023-01-23T04:37:08.386Z,8.00
2023-01-23T04:39:36.819Z,8.00
2023-01-23T04:42:05.545Z,8.00
2023-01-23T04:44:34.049Z,8.00
2023-01-23T04:47:02.515Z,8.00
2023-01-23T04:49:31.104Z,8.00
2023-01-23T04:52:01.048Z,8.00
2023-01-23T04:54:29.504Z,8.00
2023-01-23T04:56:57.967Z,8.00
2023-01-23T04:59:26.388Z,8.00
2023-01-23T05:01:54.866Z,8.00
2023-01-23T05:04:23.946Z,8.00
2023-01-23T05:06:52.423Z,8.00
2023-01-23T05:09:22.361Z,8.00
2023-01-23T05:11:50.805Z,8.00
2023-01-23T05:14:19.933Z,8.00
2023-01-23T05:16:48.567Z,8.10
2023-01-23T05:19:17.347Z,8.00
2023-01-23T05:21:45.813Z,8.00
2023-01-23T05:24:14.343Z,8.00
2023-01-23T05:26:44.222Z,8.00
2023-01-23T05:29:12.760Z,7.90
2023-01-23T05:31:41.384Z,7.90
2023-01-23T05:34:10.044Z,7.90
2023-01-23T05:36:38.503Z,7.90
2023-01-23T05:39:07.099Z,7.90
2023-01-23T05:41:35.542Z,7.90
2023-01-23T05:44:05.722Z,7.90
2023-01-23T05:46:34.230Z,7.90
2023-01-23T05:49:02.727Z,7.90
2023-01-23T05:51:33.876Z,7.90
2023-01-23T05:54:03.965Z,7.90
2023-01-23T05:56:32.543Z,8.00
2023-01-23T05:59:00.987Z,7.90
2023-01-23T06:01:30.912Z,8.00
2023-01-23T06:03:59.362Z,7.90
2023-01-23T06:06:27.828Z,7.90
2023-01-23T06:08:56.327Z,7.90
2023-01-23T06:11:24.764Z,7.90
2023-01-23T06:13:53.269Z,7.90
2023-01-23T06:16:21.739Z,7.90
2023-01-23T06:18:51.577Z,7.90
2023-01-23T06:21:20.207Z,8.00
2023-01-23T06:23:48.806Z,8.00
2023-01-23T06:26:17.300Z,8.00
2023-01-23T06:28:45.948Z,8.00
2023-01-23T06:31:14.639Z,8.10
2023-01-23T06:33:43.224Z,8.10
2023-01-23T06:36:13.166Z,8.00
2023-01-23T06:38:41.712Z,8.00
2023-01-23T06:41:10.956Z,8.00
2023-01-23T06:43:39.393Z,8.10
2023-01-23T06:46:10.509Z,8.10
2023-01-23T06:48:40.351Z,8.10
2023-01-23T06:51:09.285Z,8.10
2023-01-23T06:53:39.297Z,8.10
2023-01-23T06:56:09.582Z,8.00
2023-01-23T06:58:40.147Z,8.00
2023-01-23T07:01:13.144Z,8.00
2023-01-23T07:03:41.789Z,7.90
2023-01-23T07:06:11.532Z,7.90
2023-01-23T07:08:41.936Z,7.90
2023-01-23T07:11:11.808Z,7.80
2023-01-23T07:13:40.361Z,7.80
2023-01-23T07:16:09.422Z,7.70
2023-01-23T07:18:37.993Z,7.70
2023-01-23T07:21:07.853Z,7.70
2023-01-23T07:23:36.525Z,7.60
2023-01-23T07:26:09.524Z,7.70
2023-01-23T07:28:38.319Z,7.70
2023-01-23T07:31:07.742Z,7.60
2023-01-23T07:33:36.373Z,7.60
2023-01-23T07:36:07.980Z,7.60
2023-01-23T07:38:36.544Z,7.60
2023-01-23T07:41:06.762Z,7.50
2023-01-23T07:43:35.228Z,7.40
2023-01-23T07:46:04.291Z,7.40
2023-01-23T07:48:32.734Z,7.40
2023-01-23T07:51:04.278Z,7.30
2023-01-23T07:53:57.911Z,7.30
2023-01-23T07:56:28.291Z,7.30
2023-01-23T07:58:57.583Z,7.30
2023-01-23T08:01:26.464Z,7.20
2023-01-23T08:03:55.657Z,7.20
2023-01-23T08:06:24.190Z,7.20
2023-01-23T08:08:52.726Z,7.20
2023-01-23T08:11:21.179Z,7.20
2023-01-23T08:13:52.423Z,7.30
2023-01-23T08:16:21.332Z,7.20
2023-01-23T08:18:49.967Z,7.20
2023-01-23T08:21:18.409Z,7.20
2023-01-23T08:23:47.403Z,7.20
2023-01-23T08:26:18.826Z,7.20
2023-01-23T08:28:47.914Z,7.20
2023-01-23T08:31:18.225Z,7.20
2023-01-23T08:33:48.059Z,7.20
2023-01-23T08:36:16.854Z,7.20
2023-01-23T08:38:59.430Z,7.20
2023-01-23T08:41:28.087Z,7.20
2023-01-23T08:43:58.383Z,7.20
2023-01-23T08:46:28.690Z,7.20
2023-01-23T08:48:57.662Z,7.30
2023-01-23T08:51:27.390Z,7.30
2023-01-23T08:53:56.220Z,7.30
2023-01-23T08:56:25.632Z,7.30
2023-01-23T08:58:54.434Z,7.40
2023-01-23T09:01:26.677Z,7.30
2023-01-23T09:03:57.589Z,7.30
2023-01-23T09:06:26.087Z,7.30
2023-01-23T09:08:54.546Z,7.30
2023-01-23T09:11:23.912Z,7.40
2023-01-23T09:13:54.086Z,7.40
2023-01-23T09:16:22.817Z,7.40
2023-01-23T09:18:51.484Z,7.40
2023-01-23T09:21:21.343Z,7.30
2023-01-23T09:23:49.825Z,7.40
2023-01-23T09:26:19.927Z,7.40
2023-01-23T09:28:48.585Z,7.40
2023-01-23T09:31:17.261Z,7.40
2023-01-23T09:33:45.679Z,7.50
2023-01-23T09:36:14.167Z,7.50
2023-01-23T09:38:43.931Z,7.50
2023-01-23T09:41:20.157Z,7.50
2023-01-23T09:43:58.560Z,7.50
2023-01-23T09:46:34.326Z,7.50
2023-01-23T09:49:11.037Z,7.50
2023-01-23T09:51:57.729Z,7.50
2023-01-23T09:54:43.311Z,7.50
2023-01-23T09:57:19.410Z,7.50
2023-01-23T10:00:00.228Z,7.50
2023-01-23T10:02:30.485Z,7.50
2023-01-23T10:05:19.969Z,7.50
2023-01-23T10:08:06.565Z,7.40
2023-01-23T10:10:59.494Z,7.50
2023-01-23T10:14:20.989Z,7.50
2023-01-23T10:17:07.137Z,7.40
2023-01-23T10:19:56.113Z,7.40
2023-01-23T10:22:36.173Z,7.40
2023-01-23T10:25:17.344Z,7.30
2023-01-23T10:27:49.382Z,7.40
2023-01-23T10:30:29.888Z,7.40
2023-01-23T10:33:01.989Z,7.40
2023-01-23T10:35:40.437Z,7.40
2023-01-23T10:38:24.119Z,7.40
2023-01-23T10:41:06.856Z,7.40
2023-01-23T10:43:37.255Z,7.40
2023-01-23T10:46:13.774Z,7.40
2023-01-23T10:48:47.035Z,7.40
2023-01-23T10:51:47.849Z,7.40
2023-01-23T10:54:31.438Z,7.40
2023-01-23T10:57:03.312Z,7.40
2023-01-23T10:59:38.287Z,7.50
2023-01-23T11:02:46.519Z,7.50
2023-01-23T11:05:50.566Z,7.50
2023-01-23T11:08:53.341Z,7.50
2023-01-23T11:11:25.942Z,7.40
2023-01-23T11:14:09.222Z,7.40
2023-01-23T11:16:39.645Z,7.30
2023-01-23T11:19:34.236Z,7.30
2023-01-23T11:22:05.552Z,7.30
2023-01-23T11:24:41.159Z,7.20
2023-01-23T11:27:36.052Z,7.30
2023-01-23T11:30:39.590Z,7.30
2023-01-23T11:33:38.076Z,7.30
2023-01-23T11:36:27.015Z,7.40
2023-01-23T11:39:04.998Z,7.40
2023-01-23T11:41:36.963Z,7.50
2023-01-23T11:44:12.880Z,7.50
2023-01-23T11:47:07.932Z,7.40
2023-01-23T11:50:10.877Z,7.40
2023-01-23T11:52:54.574Z,7.40
2023-01-23T11:56:32.500Z,7.40
2023-01-23T11:59:46.081Z,7.30
2023-01-23T12:02:47.060Z,7.40
2023-01-23T12:05:34.734Z,7.40
2023-01-23T12:08:26.794Z,7.30
2023-01-23T12:11:22.355Z,7.30
2023-01-23T12:14:15.293Z,7.20
2023-01-23T12:17:19.957Z,7.20
2023-01-23T12:20:16.718Z,7.20
2023-01-23T12:23:00.540Z,7.20
2023-01-23T12:25:36.479Z,7.20
2023-01-23T12:28:30.516Z,7.20
2023-01-23T12:31:25.467Z,7.20
2023-01-23T12:35:02.512Z,7.20
2023-01-23T12:38:07.045Z,7.10
2023-01-23T12:40:42.981Z,7.10
2023-01-23T12:43:17.796Z,7.00
2023-01-23T12:45:59.564Z,7.00
2023-01-23T12:48:36.291Z,7.00
2023-01-23T12:51:13.964Z,7.00
2023-01-23T12:53:51.037Z,7.00
2023-01-23T12:56:30.976Z,7.00
2023-01-23T12:59:09.118Z,7.00
2023-01-23T13:01:57.078Z,7.00
2023-01-23T13:04:48.179Z,7.00
2023-01-23T13:07:35.884Z,7.00
2023-01-23T13:11:05.736Z,7.00
2023-01-23T13:13:34.947Z,7.10
2023-01-23T13:16:12.029Z,7.10
2023-01-23T13:18:59.549Z,7.00
2023-01-23T13:21:45.584Z,7.00
2023-01-23T13:24:51.621Z,7.10
2023-01-23T13:27:42.476Z,7.00
2023-01-23T13:30:44.795Z,7.00
2023-01-23T13:33:58.812Z,7.00
2023-01-23T13:36:38.227Z,7.00
2023-01-23T13:39:29.137Z,7.00
2023-01-23T13:42:37.659Z,7.00
2023-01-23T13:45:53.035Z,7.00
2023-01-23T14:21:30.310Z,6.90
2023-01-23T14:24:03.944Z,6.90
2023-01-23T14:26:35.384Z,6.90
2023-01-23T14:29:08.065Z,6.80
2023-01-23T14:31:38.620Z,6.80
2023-01-23T14:34:18.670Z,6.80
2023-01-23T14:36:53.142Z,6.80
2023-01-23T14:39:24.865Z,6.80
2023-01-23T14:42:00.365Z,6.80
2023-01-23T14:44:37.549Z,6.80
2023-01-23T14:47:08.176Z,6.80
2023-01-23T14:49:38.751Z,6.70
2023-01-23T14:52:22.995Z,6.80
2023-01-23T14:54:54.411Z,6.80
2023-01-23T14:57:27.050Z,6.80
2023-01-23T14:59:58.442Z,6.80
2023-01-23T15:02:33.709Z,6.70
2023-01-23T15:05:22.733Z,6.70
2023-01-23T15:07:57.453Z,6.70
2023-01-23T15:10:29.271Z,6.70
2023-01-23T15:13:02.121Z,6.70
2023-01-23T15:15:33.139Z,6.60
2023-01-23T15:18:05.820Z,6.60
2023-01-23T15:20:40.779Z,6.70
2023-01-23T15:23:31.514Z,6.60
2023-01-23T15:26:26.648Z,6.60
2023-01-23T15:28:57.656Z,6.60
2023-01-23T15:31:30.675Z,6.60
2023-01-23T15:34:20.384Z,6.60
2023-01-23T15:36:52.120Z,6.50
2023-01-23T15:39:29.182Z,6.50
2023-01-23T15:42:02.231Z,6.50
2023-01-23T15:44:33.671Z,6.60
2023-01-23T15:47:03.971Z,6.50
2023-01-23T15:49:35.190Z,6.50
2023-01-23T15:52:19.733Z,6.50
2023-01-23T15:54:51.780Z,6.50
2023-01-23T15:57:20.312Z,6.50
2023-01-23T15:59:48.952Z,6.50
2023-01-23T16:02:30.621Z,6.50
2023-01-23T16:05:01.198Z,6.50
2023-01-23T16:07:35.181Z,6.50
2023-01-23T16:10:18.230Z,6.50
2023-01-23T16:12:48.928Z,6.50
2023-01-23T16:15:20.603Z,6.50
2023-01-23T16:17:49.618Z,6.40
2023-01-23T16:20:21.599Z,6.50
2023-01-23T16:22:54.480Z,6.50
2023-01-23T16:25:42.974Z,6.50
2023-01-23T16:28:15.328Z,6.50
2023-01-23T16:30:44.659Z,6.50
2023-01-23T16:33:13.794Z,6.60
2023-01-23T16:35:43.389Z,6.60
2023-01-23T16:38:21.210Z,6.60
2023-01-23T16:40:53.470Z,6.60
2023-01-23T16:43:23.033Z,6.60
2023-01-23T16:45:56.244Z,6.60
2023-01-23T16:48:27.589Z,6.60
2023-01-23T16:51:02.313Z,6.60
2023-01-23T16:53:34.455Z,6.50
2023-01-23T16:56:07.080Z,6.50
2023-01-23T16:58:41.016Z,6.50
2023-01-23T17:01:17.153Z,6.50
2023-01-23T17:03:46.261Z,6.50
2023-01-23T17:06:17.013Z,6.50
2023-01-23T17:08:45.478Z,6.50
2023-01-23T17:11:22.726Z,6.50
2023-01-23T17:13:58.676Z,6.50
2023-01-23T17:16:28.324Z,6.50
2023-01-23T17:18:59.945Z,6.50
2023-01-23T17:21:35.029Z,6.40
2023-01-23T17:24:03.613Z,6.40
2023-01-23T17:26:33.655Z,6.40
2023-01-23T17:29:02.271Z,6.40
2023-01-23T17:31:32.641Z,6.40
2023-01-23T17:34:04.041Z,6.40
2023-01-23T17:36:32.722Z,6.40
2023-01-23T17:39:01.676Z,6.30
2023-01-23T17:41:32.260Z,6.30
2023-01-23T17:44:02.884Z,6.30
2023-01-23T17:46:36.794Z,6.30
2023-01-23T17:49:07.211Z,6.30
2023-01-23T17:51:35.758Z,6.20
2023-01-23T17:54:04.524Z,6.20
2023-01-23T17:56:33.023Z,6.20
2023-01-23T17:59:02.845Z,6.20
2023-01-23T18:01:31.394Z,6.20
2023-01-23T18:03:59.933Z,6.20
2023-01-23T18:06:29.800Z,6.20
2023-01-23T18:08:58.973Z,6.20
2023-01-23T18:11:27.776Z,6.20
2023-01-23T18:14:32.057Z,6.20
2023-01-23T18:17:01.232Z,6.10
2023-01-23T18:19:30.701Z,6.10
2023-01-23T18:22:00.056Z,6.10
2023-01-23T18:24:31.083Z,6.10
2023-01-23T18:27:02.155Z,6.10
2023-01-23T18:29:48.699Z,6.00
2023-01-23T18:33:03.386Z,6.10
2023-01-23T18:36:24.104Z,6.10
2023-01-23T18:39:27.427Z,6.00
2023-01-23T18:42:15.472Z,6.00
2023-01-23T18:44:55.621Z,6.10
2023-01-23T18:47:25.470Z,6.00
2023-01-23T18:49:54.836Z,6.00
2023-01-23T18:52:41.643Z,6.10
2023-01-23T18:55:25.501Z,6.10
2023-01-23T18:58:19.114Z,6.00
2023-01-23T19:00:59.267Z,6.00
2023-01-23T19:03:39.240Z,6.00
2023-01-23T19:06:17.504Z,6.00
2023-01-23T19:08:47.983Z,6.00
2023-01-23T19:11:33.606Z,6.00
2023-01-23T19:14:21.799Z,6.00
2023-01-23T19:17:05.455Z,6.00
2023-01-23T19:19:47.490Z,5.90
2023-01-23T19:22:20.256Z,6.00
2023-01-23T19:24:49.653Z,5.90
2023-01-23T19:27:24.152Z,5.90
2023-01-23T19:29:53.125Z,5.90
2023-01-23T19:32:23.934Z,5.90
2023-01-23T19:34:53.711Z,5.90
2023-01-23T19:37:23.568Z,5.90
2023-01-23T19:39:52.000Z,5.90
2023-01-23T19:42:20.501Z,5.90
2023-01-23T19:44:48.922Z,5.90
2023-01-23T19:47:17.405Z,6.00
2023-01-23T19:49:47.184Z,6.00
2023-01-23T19:52:17.627Z,6.00
2023-01-23T19:54:46.663Z,5.90
2023-01-23T19:57:15.471Z,5.90
2023-01-23T19:59:43.911Z,5.90
2023-01-23T20:02:20.234Z,5.90
2023-01-23T20:04:50.284Z,5.90
2023-01-23T20:07:18.834Z,5.90
2023-01-23T20:09:47.249Z,5.90
2023-01-23T20:12:15.664Z,5.90
2023-01-23T20:14:44.100Z,5.90
2023-01-23T20:17:12.597Z,5.90
2023-01-23T20:19:41.487Z,5.90
2023-01-23T20:22:11.290Z,5.80
2023-01-23T20:24:41.160Z,5.80
2023-01-23T20:27:09.646Z,5.80
2023-01-23T20:29:38.787Z,5.80
2023-01-23T20:32:07.646Z,5.80
2023-01-23T20:34:36.086Z,5.80
2023-01-23T20:40:13.445Z,5.80
2023-01-23T20:42:42.294Z,5.80
2023-01-23T20:45:11.698Z,5.70
2023-01-23T20:47:40.271Z,5.70
2023-01-23T20:50:10.235Z,5.70
2023-01-23T20:52:56.127Z,5.70
2023-01-23T20:55:26.072Z,5.70
2023-01-23T20:58:08.356Z,5.80
2023-01-23T21:00:36.762Z,5.70
2023-01-23T21:03:05.415Z,5.70
2023-01-23T21:05:34.006Z,5.70
2023-01-23T21:08:02.671Z,5.70
2023-01-23T21:10:32.504Z,5.70
2023-01-23T21:13:01.006Z,5.70
2023-01-23T21:15:32.276Z,5.70
2023-01-23T21:18:01.574Z,5.70
2023-01-23T21:20:30.197Z,5.60
2023-01-23T21:22:58.694Z,5.60
2023-01-23T21:25:27.237Z,5.60
2023-01-23T21:27:57.044Z,5.60
2023-01-23T21:30:25.556Z,5.60
2023-01-23T21:33:12.152Z,5.60
2023-01-23T21:35:40.851Z,5.60
2023-01-23T21:38:09.374Z,5.60
2023-01-23T21:40:37.857Z,5.50
2023-01-23T21:43:07.710Z,5.50
2023-01-23T21:45:36.344Z,5.50
2023-01-23T21:48:05.840Z,5.50
2023-01-23T21:50:34.288Z,5.50
2023-01-23T21:53:02.847Z,5.50
2023-01-23T21:55:31.351Z,5.50
2023-01-23T21:57:59.845Z,5.50
2023-01-23T22:00:47.136Z,5.50
2023-01-23T22:03:15.645Z,5.50
2023-01-23T22:05:44.109Z,5.50
2023-01-23T22:08:12.717Z,5.40
2023-01-23T22:10:41.123Z,5.40
2023-01-23T22:13:09.564Z,5.40
2023-01-23T22:15:40.672Z,5.40
2023-01-23T22:18:09.194Z,5.40
2023-01-23T22:21:04.163Z,5.40
2023-01-23T22:23:33.372Z,5.40
2023-01-23T22:26:06.946Z,5.40
2023-01-23T22:28:37.467Z,5.30
2023-01-23T22:31:22.789Z,5.30
2023-01-23T22:33:51.282Z,5.30
2023-01-23T22:36:21.259Z,5.30
2023-01-23T22:38:53.249Z,5.30
2023-01-23T22:41:22.481Z,5.30
2023-01-23T22:43:54.970Z,5.30
2023-01-23T22:46:25.426Z,5.30
2023-01-23T22:48:53.908Z,5.20
2023-01-23T22:51:25.493Z,5.30
2023-01-23T22:53:54.804Z,5.30
2023-01-23T22:56:24.364Z,5.20
2023-01-23T22:58:55.540Z,5.20
2023-01-23T23:01:27.294Z,5.20
2023-01-23T23:03:58.824Z,5.20
2023-01-23T23:06:28.516Z,5.20
2023-01-23T23:08:57.255Z,5.20
2023-01-23T23:11:28.822Z,5.20
2023-01-23T23:13:58.079Z,5.20
2023-01-23T23:16:34.021Z,5.10
2023-01-23T23:19:05.000Z,5.20
2023-01-23T23:21:37.214Z,5.20
2023-01-23T23:24:08.602Z,5.20
2023-01-23T23:26:37.589Z,5.20
2023-01-23T23:29:06.750Z,5.20
2023-01-23T23:32:10.605Z,5.10
2023-01-23T23:34:39.037Z,5.10
2023-01-23T23:37:07.571Z,5.10
2023-01-23T23:39:36.043Z,5.10
2023-01-23T23:42:04.615Z,5.10
2023-01-23T23:44:33.161Z,5.10
2023-01-23T23:47:01.821Z,5.10
2023-01-23T23:49:31.743Z,5.10
2023-01-23T23:52:00.214Z,5.10
2023-01-23T23:54:28.894Z,5.00
2023-01-23T23:56:57.373Z,5.00
2023-01-23T23:59:25.869Z,5.00
